sensor_id;sensor_type;location;lat;lon;timestamp;P1;durP1;ratioP1;P2;durP2;ratioP2
22129;SDS011;11231;50.746;4.272;2024-01-27T00:00:07;20.33;;;5.50;;
22129;SDS011;11231;50.746;4.272;2024-01-27T00:02:37;14.10;;;4.63;;
22129;SDS011;11231;50.746;4.272;2024-01-27T00:05:03;16.37;;;5.07;;
22129;SDS011;11231;50.746;4.272;2024-01-27T00:07:28;17.37;;;5.07;;
22129;SDS011;11231;50.746;4.272;2024-01-27T00:09:55;20.80;;;5.47;;
22129;SDS011;11231;50.746;4.272;2024-01-27T00:12:20;21.43;;;5.13;;
22129;SDS011;11231;50.746;4.272;2024-01-27T00:14:46;18.97;;;5.00;;
22129;SDS011;11231;50.746;4.272;2024-01-27T00:17:12;19.73;;;5.50;;
22129;SDS011;11231;50.746;4.272;2024-01-27T00:19:38;21.33;;;6.77;;
22129;SDS011;11231;50.746;4.272;2024-01-27T00:22:04;20.77;;;7.97;;
22129;SDS011;11231;50.746;4.272;2024-01-27T00:24:30;21.73;;;8.50;;
22129;SDS011;11231;50.746;4.272;2024-01-27T00:26:55;26.73;;;8.03;;
22129;SDS011;11231;50.746;4.272;2024-01-27T00:29:21;20.13;;;7.60;;
22129;SDS011;11231;50.746;4.272;2024-01-27T00:31:47;24.50;;;6.97;;
22129;SDS011;11231;50.746;4.272;2024-01-27T00:34:14;22.07;;;7.43;;
22129;SDS011;11231;50.746;4.272;2024-01-27T00:36:40;21.40;;;7.10;;
22129;SDS011;11231;50.746;4.272;2024-01-27T00:39:07;21.33;;;6.97;;
22129;SDS011;11231;50.746;4.272;2024-01-27T00:41:33;20.67;;;6.93;;
22129;SDS011;11231;50.746;4.272;2024-01-27T00:43:59;20.13;;;6.87;;
22129;SDS011;11231;50.746;4.272;2024-01-27T00:46:25;21.37;;;7.13;;
22129;SDS011;11231;50.746;4.272;2024-01-27T00:48:50;19.20;;;7.30;;
22129;SDS011;11231;50.746;4.272;2024-01-27T00:51:16;27.60;;;7.63;;
22129;SDS011;11231;50.746;4.272;2024-01-27T00:53:42;20.03;;;7.07;;
22129;SDS011;11231;50.746;4.272;2024-01-27T00:56:07;22.10;;;7.43;;
22129;SDS011;11231;50.746;4.272;2024-01-27T00:58:33;21.60;;;7.60;;
22129;SDS011;11231;50.746;4.272;2024-01-27T01:00:59;24.30;;;7.73;;
22129;SDS011;11231;50.746;4.272;2024-01-27T01:03:27;19.37;;;8.17;;
22129;SDS011;11231;50.746;4.272;2024-01-27T01:05:53;21.33;;;7.67;;
22129;SDS011;11231;50.746;4.272;2024-01-27T01:08:19;26.03;;;8.17;;
22129;SDS011;11231;50.746;4.272;2024-01-27T01:10:44;25.10;;;7.83;;
22129;SDS011;11231;50.746;4.272;2024-01-27T01:13:10;23.93;;;8.40;;
22129;SDS011;11231;50.746;4.272;2024-01-27T01:15:36;24.23;;;8.20;;
22129;SDS011;11231;50.746;4.272;2024-01-27T01:18:02;23.07;;;8.17;;
22129;SDS011;11231;50.746;4.272;2024-01-27T01:20:29;23.20;;;8.40;;
22129;SDS011;11231;50.746;4.272;2024-01-27T01:22:55;22.77;;;8.13;;
22129;SDS011;11231;50.746;4.272;2024-01-27T01:25:21;21.67;;;8.13;;
22129;SDS011;11231;50.746;4.272;2024-01-27T01:27:47;23.13;;;7.80;;
22129;SDS011;11231;50.746;4.272;2024-01-27T01:30:14;23.97;;;8.33;;
22129;SDS011;11231;50.746;4.272;2024-01-27T01:32:42;20.57;;;8.20;;
22129;SDS011;11231;50.746;4.272;2024-01-27T01:35:08;22.67;;;7.90;;
22129;SDS011;11231;50.746;4.272;2024-01-27T01:37:35;20.90;;;7.73;;
22129;SDS011;11231;50.746;4.272;2024-01-27T01:40:00;22.90;;;8.10;;
22129;SDS011;11231;50.746;4.272;2024-01-27T01:42:28;24.50;;;8.27;;
22129;SDS011;11231;50.746;4.272;2024-01-27T01:44:54;19.83;;;7.70;;
22129;SDS011;11231;50.746;4.272;2024-01-27T01:47:20;24.60;;;8.70;;
22129;SDS011;11231;50.746;4.272;2024-01-27T01:49:47;22.43;;;8.03;;
22129;SDS011;11231;50.746;4.272;2024-01-27T01:52:14;34.50;;;9.70;;
22129;SDS011;11231;50.746;4.272;2024-01-27T01:54:48;22.60;;;8.23;;
22129;SDS011;11231;50.746;4.272;2024-01-27T01:57:15;20.63;;;8.30;;
22129;SDS011;11231;50.746;4.272;2024-01-27T01:59:41;25.93;;;8.60;;
22129;SDS011;11231;50.746;4.272;2024-01-27T02:02:09;22.53;;;8.77;;
22129;SDS011;11231;50.746;4.272;2024-01-27T02:04:41;20.97;;;9.20;;
22129;SDS011;11231;50.746;4.272;2024-01-27T02:07:08;27.33;;;9.10;;
22129;SDS011;11231;50.746;4.272;2024-01-27T02:09:34;26.17;;;9.13;;
22129;SDS011;11231;50.746;4.272;2024-01-27T02:12:00;24.10;;;9.17;;
22129;SDS011;11231;50.746;4.272;2024-01-27T02:14:26;23.03;;;8.97;;
22129;SDS011;11231;50.746;4.272;2024-01-27T02:16:53;19.40;;;8.03;;
22129;SDS011;11231;50.746;4.272;2024-01-27T02:19:19;31.50;;;10.70;;
22129;SDS011;11231;50.746;4.272;2024-01-27T02:21:44;24.93;;;8.10;;
22129;SDS011;11231;50.746;4.272;2024-01-27T02:24:10;24.43;;;8.27;;
22129;SDS011;11231;50.746;4.272;2024-01-27T02:26:36;22.63;;;8.93;;
22129;SDS011;11231;50.746;4.272;2024-01-27T02:29:02;30.13;;;9.10;;
22129;SDS011;11231;50.746;4.272;2024-01-27T02:31:28;26.53;;;7.80;;
22129;SDS011;11231;50.746;4.272;2024-01-27T02:33:54;28.27;;;8.63;;
22129;SDS011;11231;50.746;4.272;2024-01-27T02:36:19;20.57;;;7.33;;
22129;SDS011;11231;50.746;4.272;2024-01-27T02:38:45;24.00;;;7.70;;
22129;SDS011;11231;50.746;4.272;2024-01-27T02:41:11;22.40;;;7.57;;
22129;SDS011;11231;50.746;4.272;2024-01-27T02:43:37;27.33;;;7.90;;
22129;SDS011;11231;50.746;4.272;2024-01-27T02:46:05;20.37;;;6.90;;
22129;SDS011;11231;50.746;4.272;2024-01-27T02:48:34;21.70;;;7.23;;
22129;SDS011;11231;50.746;4.272;2024-01-27T02:51:03;27.00;;;7.87;;
22129;SDS011;11231;50.746;4.272;2024-01-27T02:53:29;25.53;;;7.63;;
22129;SDS011;11231;50.746;4.272;2024-01-27T02:55:55;25.70;;;7.67;;
22129;SDS011;11231;50.746;4.272;2024-01-27T02:58:21;25.60;;;7.40;;
22129;SDS011;11231;50.746;4.272;2024-01-27T03:00:47;25.07;;;7.57;;
22129;SDS011;11231;50.746;4.272;2024-01-27T03:03:13;24.30;;;7.50;;
22129;SDS011;11231;50.746;4.272;2024-01-27T03:05:40;25.47;;;7.43;;
22129;SDS011;11231;50.746;4.272;2024-01-27T03:08:06;20.47;;;7.33;;
22129;SDS011;11231;50.746;4.272;2024-01-27T03:10:32;34.43;;;7.33;;
22129;SDS011;11231;50.746;4.272;2024-01-27T03:12:57;27.03;;;7.73;;
22129;SDS011;11231;50.746;4.272;2024-01-27T03:15:23;27.17;;;8.13;;
22129;SDS011;11231;50.746;4.272;2024-01-27T03:17:49;25.83;;;7.67;;
22129;SDS011;11231;50.746;4.272;2024-01-27T03:20:15;26.00;;;8.33;;
22129;SDS011;11231;50.746;4.272;2024-01-27T03:22:41;21.90;;;7.50;;
22129;SDS011;11231;50.746;4.272;2024-01-27T03:25:07;25.20;;;7.80;;
22129;SDS011;11231;50.746;4.272;2024-01-27T03:27:36;38.77;;;8.47;;
22129;SDS011;11231;50.746;4.272;2024-01-27T03:30:02;22.50;;;7.43;;
22129;SDS011;11231;50.746;4.272;2024-01-27T03:32:29;21.77;;;7.10;;
22129;SDS011;11231;50.746;4.272;2024-01-27T03:34:58;24.70;;;6.83;;
22129;SDS011;11231;50.746;4.272;2024-01-27T03:37:24;18.97;;;6.67;;
22129;SDS011;11231;50.746;4.272;2024-01-27T03:39:50;23.63;;;7.40;;
22129;SDS011;11231;50.746;4.272;2024-01-27T03:42:16;25.07;;;8.03;;
22129;SDS011;11231;50.746;4.272;2024-01-27T03:44:42;27.73;;;7.47;;
22129;SDS011;11231;50.746;4.272;2024-01-27T03:47:07;34.17;;;8.17;;
22129;SDS011;11231;50.746;4.272;2024-01-27T03:49:33;22.93;;;7.60;;
22129;SDS011;11231;50.746;4.272;2024-01-27T03:51:59;18.40;;;7.60;;
22129;SDS011;11231;50.746;4.272;2024-01-27T03:54:25;27.50;;;7.47;;
22129;SDS011;11231;50.746;4.272;2024-01-27T03:56:50;19.47;;;7.57;;
22129;SDS011;11231;50.746;4.272;2024-01-27T03:59:16;25.03;;;7.60;;
22129;SDS011;11231;50.746;4.272;2024-01-27T04:01:42;26.07;;;7.90;;
22129;SDS011;11231;50.746;4.272;2024-01-27T04:04:08;31.40;;;7.80;;
22129;SDS011;11231;50.746;4.272;2024-01-27T04:06:40;25.97;;;7.67;;
22129;SDS011;11231;50.746;4.272;2024-01-27T04:09:06;25.17;;;8.47;;
22129;SDS011;11231;50.746;4.272;2024-01-27T04:11:35;25.97;;;7.60;;
22129;SDS011;11231;50.746;4.272;2024-01-27T04:14:02;27.77;;;7.87;;
22129;SDS011;11231;50.746;4.272;2024-01-27T04:16:29;24.17;;;8.17;;
22129;SDS011;11231;50.746;4.272;2024-01-27T04:18:54;25.93;;;8.80;;
22129;SDS011;11231;50.746;4.272;2024-01-27T04:21:20;29.90;;;8.53;;
22129;SDS011;11231;50.746;4.272;2024-01-27T04:23:46;26.07;;;8.53;;
22129;SDS011;11231;50.746;4.272;2024-01-27T04:26:12;30.80;;;9.03;;
22129;SDS011;11231;50.746;4.272;2024-01-27T04:28:38;31.33;;;9.10;;
22129;SDS011;11231;50.746;4.272;2024-01-27T04:31:04;23.90;;;8.70;;
22129;SDS011;11231;50.746;4.272;2024-01-27T04:33:30;34.73;;;9.30;;
22129;SDS011;11231;50.746;4.272;2024-01-27T04:35:56;27.63;;;8.20;;
22129;SDS011;11231;50.746;4.272;2024-01-27T04:38:21;28.57;;;8.43;;
22129;SDS011;11231;50.746;4.272;2024-01-27T04:40:48;34.70;;;9.60;;
22129;SDS011;11231;50.746;4.272;2024-01-27T04:43:17;26.63;;;8.43;;
22129;SDS011;11231;50.746;4.272;2024-01-27T04:45:44;27.70;;;9.30;;
22129;SDS011;11231;50.746;4.272;2024-01-27T04:48:10;32.40;;;9.30;;
22129;SDS011;11231;50.746;4.272;2024-01-27T04:50:35;20.47;;;8.13;;
22129;SDS011;11231;50.746;4.272;2024-01-27T04:53:01;29.30;;;8.80;;
22129;SDS011;11231;50.746;4.272;2024-01-27T04:55:27;25.53;;;9.20;;
22129;SDS011;11231;50.746;4.272;2024-01-27T04:57:53;27.53;;;8.20;;
22129;SDS011;11231;50.746;4.272;2024-01-27T05:00:19;30.37;;;8.27;;
22129;SDS011;11231;50.746;4.272;2024-01-27T05:02:45;28.13;;;8.30;;
22129;SDS011;11231;50.746;4.272;2024-01-27T05:05:12;28.50;;;8.90;;
22129;SDS011;11231;50.746;4.272;2024-01-27T05:07:38;28.67;;;9.10;;
22129;SDS011;11231;50.746;4.272;2024-01-27T05:10:04;32.40;;;9.13;;
22129;SDS011;11231;50.746;4.272;2024-01-27T05:12:31;24.53;;;8.33;;
22129;SDS011;11231;50.746;4.272;2024-01-27T05:14:56;22.47;;;7.53;;
22129;SDS011;11231;50.746;4.272;2024-01-27T05:17:22;19.20;;;8.17;;
22129;SDS011;11231;50.746;4.272;2024-01-27T05:19:49;23.70;;;8.13;;
22129;SDS011;11231;50.746;4.272;2024-01-27T05:22:17;19.13;;;7.77;;
22129;SDS011;11231;50.746;4.272;2024-01-27T05:24:42;23.00;;;7.57;;
22129;SDS011;11231;50.746;4.272;2024-01-27T05:27:09;23.27;;;8.67;;
22129;SDS011;11231;50.746;4.272;2024-01-27T05:29:36;24.33;;;8.50;;
22129;SDS011;11231;50.746;4.272;2024-01-27T05:32:02;30.57;;;8.57;;
22129;SDS011;11231;50.746;4.272;2024-01-27T05:34:28;26.07;;;8.60;;
22129;SDS011;11231;50.746;4.272;2024-01-27T05:36:54;27.30;;;8.53;;
22129;SDS011;11231;50.746;4.272;2024-01-27T05:39:20;30.27;;;9.30;;
22129;SDS011;11231;50.746;4.272;2024-01-27T05:41:46;29.27;;;9.10;;
22129;SDS011;11231;50.746;4.272;2024-01-27T05:44:11;26.63;;;9.40;;
22129;SDS011;11231;50.746;4.272;2024-01-27T05:46:37;28.07;;;9.37;;
22129;SDS011;11231;50.746;4.272;2024-01-27T05:49:03;27.97;;;9.13;;
22129;SDS011;11231;50.746;4.272;2024-01-27T05:51:29;30.87;;;8.40;;
22129;SDS011;11231;50.746;4.272;2024-01-27T05:53:55;25.63;;;9.10;;
22129;SDS011;11231;50.746;4.272;2024-01-27T05:56:21;27.30;;;9.13;;
22129;SDS011;11231;50.746;4.272;2024-01-27T05:58:47;31.77;;;9.03;;
22129;SDS011;11231;50.746;4.272;2024-01-27T06:01:13;29.63;;;9.63;;
22129;SDS011;11231;50.746;4.272;2024-01-27T06:03:42;25.70;;;8.73;;
22129;SDS011;11231;50.746;4.272;2024-01-27T06:06:08;27.17;;;8.63;;
22129;SDS011;11231;50.746;4.272;2024-01-27T06:08:34;27.90;;;9.07;;
22129;SDS011;11231;50.746;4.272;2024-01-27T06:11:03;28.17;;;9.30;;
22129;SDS011;11231;50.746;4.272;2024-01-27T06:13:29;32.00;;;8.47;;
22129;SDS011;11231;50.746;4.272;2024-01-27T06:15:55;23.63;;;7.97;;
22129;SDS011;11231;50.746;4.272;2024-01-27T06:18:21;22.87;;;7.83;;
22129;SDS011;11231;50.746;4.272;2024-01-27T06:20:47;22.10;;;8.07;;
22129;SDS011;11231;50.746;4.272;2024-01-27T06:23:12;21.83;;;8.57;;
22129;SDS011;11231;50.746;4.272;2024-01-27T06:25:38;23.97;;;8.33;;
22129;SDS011;11231;50.746;4.272;2024-01-27T06:28:04;28.23;;;8.60;;
22129;SDS011;11231;50.746;4.272;2024-01-27T06:30:30;22.03;;;8.67;;
22129;SDS011;11231;50.746;4.272;2024-01-27T06:32:55;29.10;;;8.80;;
22129;SDS011;11231;50.746;4.272;2024-01-27T06:35:21;28.87;;;9.43;;
22129;SDS011;11231;50.746;4.272;2024-01-27T06:37:47;27.90;;;10.47;;
22129;SDS011;11231;50.746;4.272;2024-01-27T06:40:13;36.47;;;11.73;;
22129;SDS011;11231;50.746;4.272;2024-01-27T06:42:39;29.53;;;11.10;;
22129;SDS011;11231;50.746;4.272;2024-01-27T06:45:05;39.73;;;11.50;;
22129;SDS011;11231;50.746;4.272;2024-01-27T06:47:31;33.00;;;10.97;;
22129;SDS011;11231;50.746;4.272;2024-01-27T06:49:56;32.57;;;10.67;;
22129;SDS011;11231;50.746;4.272;2024-01-27T06:52:22;33.30;;;10.33;;
22129;SDS011;11231;50.746;4.272;2024-01-27T06:54:47;28.50;;;10.77;;
22129;SDS011;11231;50.746;4.272;2024-01-27T06:57:20;36.87;;;10.90;;
22129;SDS011;11231;50.746;4.272;2024-01-27T06:59:47;27.83;;;9.67;;
22129;SDS011;11231;50.746;4.272;2024-01-27T07:02:17;28.00;;;9.67;;
22129;SDS011;11231;50.746;4.272;2024-01-27T07:04:44;30.13;;;10.20;;
22129;SDS011;11231;50.746;4.272;2024-01-27T07:07:09;27.80;;;12.23;;
22129;SDS011;11231;50.746;4.272;2024-01-27T07:09:35;29.00;;;10.00;;
22129;SDS011;11231;50.746;4.272;2024-01-27T07:12:01;24.67;;;10.20;;
22129;SDS011;11231;50.746;4.272;2024-01-27T07:14:27;32.30;;;10.37;;
22129;SDS011;11231;50.746;4.272;2024-01-27T07:16:53;31.10;;;10.10;;
22129;SDS011;11231;50.746;4.272;2024-01-27T07:19:18;28.63;;;9.03;;
22129;SDS011;11231;50.746;4.272;2024-01-27T07:21:44;27.67;;;9.90;;
22129;SDS011;11231;50.746;4.272;2024-01-27T07:24:10;24.40;;;10.00;;
22129;SDS011;11231;50.746;4.272;2024-01-27T07:26:35;25.13;;;9.20;;
22129;SDS011;11231;50.746;4.272;2024-01-27T07:29:01;24.17;;;9.80;;
22129;SDS011;11231;50.746;4.272;2024-01-27T07:31:27;25.87;;;10.13;;
22129;SDS011;11231;50.746;4.272;2024-01-27T07:33:53;22.97;;;9.40;;
22129;SDS011;11231;50.746;4.272;2024-01-27T07:36:18;30.47;;;9.77;;
22129;SDS011;11231;50.746;4.272;2024-01-27T07:38:44;29.33;;;10.47;;
22129;SDS011;11231;50.746;4.272;2024-01-27T07:41:10;31.10;;;10.60;;
22129;SDS011;11231;50.746;4.272;2024-01-27T07:43:35;30.17;;;9.53;;
22129;SDS011;11231;50.746;4.272;2024-01-27T07:46:01;28.13;;;10.27;;
22129;SDS011;11231;50.746;4.272;2024-01-27T07:48:27;23.00;;;9.43;;
22129;SDS011;11231;50.746;4.272;2024-01-27T07:50:52;26.53;;;8.77;;
22129;SDS011;11231;50.746;4.272;2024-01-27T07:53:18;27.40;;;9.60;;
22129;SDS011;11231;50.746;4.272;2024-01-27T07:55:44;32.70;;;9.53;;
22129;SDS011;11231;50.746;4.272;2024-01-27T07:58:10;27.77;;;9.23;;
22129;SDS011;11231;50.746;4.272;2024-01-27T08:00:35;27.17;;;9.47;;
22129;SDS011;11231;50.746;4.272;2024-01-27T08:03:01;27.70;;;10.37;;
22129;SDS011;11231;50.746;4.272;2024-01-27T08:05:27;30.70;;;9.80;;
22129;SDS011;11231;50.746;4.272;2024-01-27T08:07:53;33.20;;;9.37;;
22129;SDS011;11231;50.746;4.272;2024-01-27T08:10:18;34.23;;;9.03;;
22129;SDS011;11231;50.746;4.272;2024-01-27T08:12:44;25.83;;;10.50;;
22129;SDS011;11231;50.746;4.272;2024-01-27T08:15:10;27.80;;;11.23;;
22129;SDS011;11231;50.746;4.272;2024-01-27T08:17:36;29.97;;;11.63;;
22129;SDS011;11231;50.746;4.272;2024-01-27T08:20:02;24.93;;;10.50;;
22129;SDS011;11231;50.746;4.272;2024-01-27T08:22:28;30.17;;;8.93;;
22129;SDS011;11231;50.746;4.272;2024-01-27T08:24:54;26.10;;;8.77;;
22129;SDS011;11231;50.746;4.272;2024-01-27T08:27:21;28.23;;;8.97;;
22129;SDS011;11231;50.746;4.272;2024-01-27T08:29:48;24.27;;;8.03;;
22129;SDS011;11231;50.746;4.272;2024-01-27T08:32:13;28.37;;;9.10;;
22129;SDS011;11231;50.746;4.272;2024-01-27T08:34:42;26.20;;;8.67;;
22129;SDS011;11231;50.746;4.272;2024-01-27T08:37:15;27.03;;;7.93;;
22129;SDS011;11231;50.746;4.272;2024-01-27T08:39:43;28.27;;;9.73;;
22129;SDS011;11231;50.746;4.272;2024-01-27T08:42:09;24.53;;;8.90;;
22129;SDS011;11231;50.746;4.272;2024-01-27T08:44:35;23.10;;;8.47;;
22129;SDS011;11231;50.746;4.272;2024-01-27T08:47:01;31.67;;;9.57;;
22129;SDS011;11231;50.746;4.272;2024-01-27T08:49:27;23.53;;;8.83;;
22129;SDS011;11231;50.746;4.272;2024-01-27T08:51:52;23.53;;;8.23;;
22129;SDS011;11231;50.746;4.272;2024-01-27T08:54:22;22.83;;;8.00;;
22129;SDS011;11231;50.746;4.272;2024-01-27T08:56:48;22.83;;;7.27;;
22129;SDS011;11231;50.746;4.272;2024-01-27T08:59:14;22.57;;;7.30;;
22129;SDS011;11231;50.746;4.272;2024-01-27T09:01:39;18.93;;;7.63;;
22129;SDS011;11231;50.746;4.272;2024-01-27T09:04:05;22.60;;;6.53;;
22129;SDS011;11231;50.746;4.272;2024-01-27T09:06:31;19.50;;;6.70;;
22129;SDS011;11231;50.746;4.272;2024-01-27T09:08:56;22.10;;;6.70;;
22129;SDS011;11231;50.746;4.272;2024-01-27T09:11:22;25.13;;;6.07;;
22129;SDS011;11231;50.746;4.272;2024-01-27T09:13:49;19.07;;;5.80;;
22129;SDS011;11231;50.746;4.272;2024-01-27T09:16:17;24.83;;;5.90;;
22129;SDS011;11231;50.746;4.272;2024-01-27T09:18:43;22.60;;;6.43;;
22129;SDS011;11231;50.746;4.272;2024-01-27T09:21:09;21.10;;;6.17;;
22129;SDS011;11231;50.746;4.272;2024-01-27T09:23:34;20.20;;;6.03;;
22129;SDS011;11231;50.746;4.272;2024-01-27T09:26:03;19.77;;;6.03;;
22129;SDS011;11231;50.746;4.272;2024-01-27T09:28:30;18.70;;;5.27;;
22129;SDS011;11231;50.746;4.272;2024-01-27T09:30:56;25.90;;;5.93;;
22129;SDS011;11231;50.746;4.272;2024-01-27T09:33:22;21.27;;;6.00;;
22129;SDS011;11231;50.746;4.272;2024-01-27T09:35:48;23.47;;;4.70;;
22129;SDS011;11231;50.746;4.272;2024-01-27T09:38:14;22.23;;;5.57;;
22129;SDS011;11231;50.746;4.272;2024-01-27T09:40:40;25.93;;;5.10;;
22129;SDS011;11231;50.746;4.272;2024-01-27T09:43:06;22.83;;;5.17;;
22129;SDS011;11231;50.746;4.272;2024-01-27T09:45:38;15.30;;;4.07;;
22129;SDS011;11231;50.746;4.272;2024-01-27T09:48:04;22.03;;;4.43;;
22129;SDS011;11231;50.746;4.272;2024-01-27T09:50:33;13.57;;;3.93;;
22129;SDS011;11231;50.746;4.272;2024-01-27T09:52:59;20.13;;;4.60;;
22129;SDS011;11231;50.746;4.272;2024-01-27T09:55:25;18.93;;;4.20;;
22129;SDS011;11231;50.746;4.272;2024-01-27T09:57:51;17.57;;;4.57;;
22129;SDS011;11231;50.746;4.272;2024-01-27T10:00:18;22.27;;;5.53;;
22129;SDS011;11231;50.746;4.272;2024-01-27T10:02:45;23.67;;;5.20;;
22129;SDS011;11231;50.746;4.272;2024-01-27T10:05:11;25.50;;;5.27;;
22129;SDS011;11231;50.746;4.272;2024-01-27T10:07:39;24.73;;;4.60;;
22129;SDS011;11231;50.746;4.272;2024-01-27T10:10:05;17.80;;;4.50;;
22129;SDS011;11231;50.746;4.272;2024-01-27T10:12:31;19.13;;;4.90;;
22129;SDS011;11231;50.746;4.272;2024-01-27T10:15:00;21.07;;;6.10;;
22129;SDS011;11231;50.746;4.272;2024-01-27T10:17:25;21.47;;;5.97;;
22129;SDS011;11231;50.746;4.272;2024-01-27T10:20:03;23.80;;;7.67;;
22129;SDS011;11231;50.746;4.272;2024-01-27T10:22:38;18.47;;;4.97;;
22129;SDS011;11231;50.746;4.272;2024-01-27T10:25:05;15.07;;;4.60;;
22129;SDS011;11231;50.746;4.272;2024-01-27T10:27:31;19.83;;;4.73;;
22129;SDS011;11231;50.746;4.272;2024-01-27T10:29:57;15.13;;;4.20;;
22129;SDS011;11231;50.746;4.272;2024-01-27T10:32:23;15.97;;;5.00;;
22129;SDS011;11231;50.746;4.272;2024-01-27T10:35:02;17.73;;;4.43;;
22129;SDS011;11231;50.746;4.272;2024-01-27T10:37:28;18.70;;;4.07;;
22129;SDS011;11231;50.746;4.272;2024-01-27T10:40:03;13.93;;;3.80;;
22129;SDS011;11231;50.746;4.272;2024-01-27T10:42:32;14.47;;;3.73;;
22129;SDS011;11231;50.746;4.272;2024-01-27T10:44:59;11.60;;;3.27;;
22129;SDS011;11231;50.746;4.272;2024-01-27T10:47:29;10.40;;;2.90;;
22129;SDS011;11231;50.746;4.272;2024-01-27T10:49:56;13.20;;;3.30;;
22129;SDS011;11231;50.746;4.272;2024-01-27T10:52:23;12.87;;;2.90;;
22129;SDS011;11231;50.746;4.272;2024-01-27T10:55:03;10.37;;;2.90;;
22129;SDS011;11231;50.746;4.272;2024-01-27T10:57:35;12.67;;;2.70;;
22129;SDS011;11231;50.746;4.272;2024-01-27T11:00:05;10.17;;;3.03;;
22129;SDS011;11231;50.746;4.272;2024-01-27T11:02:32;12.50;;;2.80;;
22129;SDS011;11231;50.746;4.272;2024-01-27T11:05:02;14.27;;;2.97;;
22129;SDS011;11231;50.746;4.272;2024-01-27T11:07:32;11.30;;;2.60;;
22129;SDS011;11231;50.746;4.272;2024-01-27T11:09:59;11.27;;;2.73;;
22129;SDS011;11231;50.746;4.272;2024-01-27T11:12:25;13.23;;;2.83;;
22129;SDS011;11231;50.746;4.272;2024-01-27T11:14:52;12.20;;;2.80;;
22129;SDS011;11231;50.746;4.272;2024-01-27T11:17:18;13.13;;;3.10;;
22129;SDS011;11231;50.746;4.272;2024-01-27T11:19:45;11.23;;;2.93;;
22129;SDS011;11231;50.746;4.272;2024-01-27T11:22:24;12.67;;;3.30;;
22129;SDS011;11231;50.746;4.272;2024-01-27T11:24:51;11.30;;;3.03;;
22129;SDS011;11231;50.746;4.272;2024-01-27T11:27:39;11.70;;;2.70;;
22129;SDS011;11231;50.746;4.272;2024-01-27T11:30:10;13.30;;;3.07;;
22129;SDS011;11231;50.746;4.272;2024-01-27T11:32:54;13.30;;;3.20;;
22129;SDS011;11231;50.746;4.272;2024-01-27T11:35:23;11.90;;;3.07;;
22129;SDS011;11231;50.746;4.272;2024-01-27T11:37:49;12.50;;;2.63;;
22129;SDS011;11231;50.746;4.272;2024-01-27T11:40:15;12.10;;;2.80;;
22129;SDS011;11231;50.746;4.272;2024-01-27T11:42:41;11.30;;;2.90;;
22129;SDS011;11231;50.746;4.272;2024-01-27T11:45:08;10.87;;;2.70;;
22129;SDS011;11231;50.746;4.272;2024-01-27T11:47:35;10.60;;;2.73;;
22129;SDS011;11231;50.746;4.272;2024-01-27T11:50:02;13.83;;;3.33;;
22129;SDS011;11231;50.746;4.272;2024-01-27T11:52:28;10.33;;;2.80;;
22129;SDS011;11231;50.746;4.272;2024-01-27T11:54:57;10.93;;;2.90;;
22129;SDS011;11231;50.746;4.272;2024-01-27T11:57:25;12.77;;;3.47;;
22129;SDS011;11231;50.746;4.272;2024-01-27T11:59:51;11.33;;;3.37;;
22129;SDS011;11231;50.746;4.272;2024-01-27T12:02:18;12.17;;;3.07;;
22129;SDS011;11231;50.746;4.272;2024-01-27T12:04:44;12.47;;;2.90;;
22129;SDS011;11231;50.746;4.272;2024-01-27T12:07:10;13.57;;;3.37;;
22129;SDS011;11231;50.746;4.272;2024-01-27T12:09:36;11.17;;;2.80;;
22129;SDS011;11231;50.746;4.272;2024-01-27T12:12:02;9.30;;;2.90;;
22129;SDS011;11231;50.746;4.272;2024-01-27T12:14:48;11.60;;;2.60;;
22129;SDS011;11231;50.746;4.272;2024-01-27T12:17:15;11.57;;;3.00;;
22129;SDS011;11231;50.746;4.272;2024-01-27T12:19:51;10.80;;;2.93;;
22129;SDS011;11231;50.746;4.272;2024-01-27T12:22:24;13.27;;;3.40;;
22129;SDS011;11231;50.746;4.272;2024-01-27T12:24:54;10.77;;;3.50;;
22129;SDS011;11231;50.746;4.272;2024-01-27T12:27:22;14.33;;;3.80;;
22129;SDS011;11231;50.746;4.272;2024-01-27T12:29:48;14.40;;;3.90;;
22129;SDS011;11231;50.746;4.272;2024-01-27T12:32:15;11.43;;;3.50;;
22129;SDS011;11231;50.746;4.272;2024-01-27T12:34:41;12.97;;;3.10;;
22129;SDS011;11231;50.746;4.272;2024-01-27T12:37:11;11.80;;;2.90;;
22129;SDS011;11231;50.746;4.272;2024-01-27T12:39:40;13.67;;;3.50;;
22129;SDS011;11231;50.746;4.272;2024-01-27T12:42:08;10.33;;;2.80;;
22129;SDS011;11231;50.746;4.272;2024-01-27T12:44:34;8.57;;;2.60;;
22129;SDS011;11231;50.746;4.272;2024-01-27T12:46:59;10.87;;;2.43;;
22129;SDS011;11231;50.746;4.272;2024-01-27T12:49:26;9.30;;;2.53;;
22129;SDS011;11231;50.746;4.272;2024-01-27T12:51:52;11.33;;;2.47;;
22129;SDS011;11231;50.746;4.272;2024-01-27T12:54:17;9.60;;;2.67;;
22129;SDS011;11231;50.746;4.272;2024-01-27T12:56:44;10.57;;;2.50;;
22129;SDS011;11231;50.746;4.272;2024-01-27T12:59:10;10.40;;;2.80;;
22129;SDS011;11231;50.746;4.272;2024-01-27T13:01:36;13.77;;;2.77;;
22129;SDS011;11231;50.746;4.272;2024-01-27T13:04:02;9.87;;;2.30;;
22129;SDS011;11231;50.746;4.272;2024-01-27T13:06:28;12.90;;;2.73;;
22129;SDS011;11231;50.746;4.272;2024-01-27T13:08:53;12.10;;;2.43;;
22129;SDS011;11231;50.746;4.272;2024-01-27T13:11:19;11.50;;;2.60;;
22129;SDS011;11231;50.746;4.272;2024-01-27T13:13:46;9.73;;;2.17;;
22129;SDS011;11231;50.746;4.272;2024-01-27T13:16:11;10.43;;;2.17;;
22129;SDS011;11231;50.746;4.272;2024-01-27T13:18:37;12.93;;;2.70;;
22129;SDS011;11231;50.746;4.272;2024-01-27T13:21:03;10.97;;;2.67;;
22129;SDS011;11231;50.746;4.272;2024-01-27T13:23:31;10.13;;;2.57;;
22129;SDS011;11231;50.746;4.272;2024-01-27T13:25:57;10.60;;;2.50;;
22129;SDS011;11231;50.746;4.272;2024-01-27T13:28:23;10.30;;;2.60;;
22129;SDS011;11231;50.746;4.272;2024-01-27T13:30:48;12.73;;;3.13;;
22129;SDS011;11231;50.746;4.272;2024-01-27T13:33:17;10.47;;;2.40;;
22129;SDS011;11231;50.746;4.272;2024-01-27T13:35:43;13.03;;;3.03;;
22129;SDS011;11231;50.746;4.272;2024-01-27T13:38:12;13.63;;;3.17;;
22129;SDS011;11231;50.746;4.272;2024-01-27T13:40:38;10.77;;;2.90;;
22129;SDS011;11231;50.746;4.272;2024-01-27T13:43:04;13.07;;;2.70;;
22129;SDS011;11231;50.746;4.272;2024-01-27T13:45:30;12.40;;;2.40;;
22129;SDS011;11231;50.746;4.272;2024-01-27T13:47:57;12.77;;;2.57;;
22129;SDS011;11231;50.746;4.272;2024-01-27T13:50:23;13.73;;;2.63;;
22129;SDS011;11231;50.746;4.272;2024-01-27T13:52:50;10.90;;;2.77;;
22129;SDS011;11231;50.746;4.272;2024-01-27T13:55:17;11.27;;;2.50;;
22129;SDS011;11231;50.746;4.272;2024-01-27T13:57:43;11.20;;;2.30;;
22129;SDS011;11231;50.746;4.272;2024-01-27T14:00:09;10.03;;;2.00;;
22129;SDS011;11231;50.746;4.272;2024-01-27T14:02:36;13.77;;;2.50;;
22129;SDS011;11231;50.746;4.272;2024-01-27T14:05:02;10.23;;;2.50;;
22129;SDS011;11231;50.746;4.272;2024-01-27T14:07:28;13.70;;;2.50;;
22129;SDS011;11231;50.746;4.272;2024-01-27T14:09:54;13.23;;;2.57;;
22129;SDS011;11231;50.746;4.272;2024-01-27T14:12:20;11.13;;;2.70;;
22129;SDS011;11231;50.746;4.272;2024-01-27T14:14:46;12.20;;;2.60;;
22129;SDS011;11231;50.746;4.272;2024-01-27T14:17:14;12.40;;;2.33;;
22129;SDS011;11231;50.746;4.272;2024-01-27T14:19:39;11.73;;;2.40;;
22129;SDS011;11231;50.746;4.272;2024-01-27T14:22:05;11.00;;;2.40;;
22129;SDS011;11231;50.746;4.272;2024-01-27T14:24:31;15.43;;;3.10;;
22129;SDS011;11231;50.746;4.272;2024-01-27T14:26:58;13.83;;;2.80;;
22129;SDS011;11231;50.746;4.272;2024-01-27T14:29:24;15.37;;;3.10;;